Time;durP1;ratioP1;P1;durP2;ratioP2;P2;SDS_P1;SDS_P2;PMS_P1;PMS_P2;Temp;Humidity;BMP_temperature;BMP_pressure;BME280_temperature;BME280_humidity;BME280_pressure;Samples;Min_cycle;Max_cycle;Signal;HPM_P1;HPM_P2
2021/08/28 00:02:19;;;;;;;4.57;2.83;;;18.60;74.40;;;;;;5058540;28;20029;-59
2021/08/28 00:04:45;;;;;;;6.10;3.25;;;18.60;74.50;;;;;;5060189;28;20241;-59
2021/08/28 00:07:11;;;;;;;7.07;4.38;;;18.60;74.50;;;;;;5011617;28;20029;-59
2021/08/28 00:09:36;;;;;;;7.57;4.30;;;18.60;74.60;;;;;;5041875;28;20528;-59
2021/08/28 00:12:02;;;;;;;5.75;4.28;;;18.60;74.70;;;;;;5027158;28;20040;-60
2021/08/28 00:14:27;;;;;;;7.38;4.22;;;18.60;74.80;;;;;;5073140;28;20024;-60
2021/08/28 00:16:53;;;;;;;5.03;4.22;;;18.50;74.70;;;;;;5057811;28;20132;-59
2021/08/28 00:19:18;;;;;;;6.63;3.75;;;18.50;74.90;;;;;;5045066;28;20171;-59
2021/08/28 00:21:44;;;;;;;4.82;3.42;;;18.50;75.00;;;;;;5057912;28;20537;-60
2021/08/28 00:24:10;;;;;;;9.13;3.88;;;18.50;75.00;;;;;;5038944;28;20043;-60
2021/08/28 00:26:35;;;;;;;4.53;3.55;;;18.40;75.00;;;;;;5042062;28;20024;-59
2021/08/28 00:29:00;;;;;;;3.97;3.33;;;18.40;75.10;;;;;;5045084;28;20020;-59
2021/08/28 00:31:26;;;;;;;5.00;3.67;;;18.40;75.10;;;;;;5064453;28;20460;-59
2021/08/28 00:33:51;;;;;;;5.47;4.20;;;18.40;75.20;;;;;;5027878;28;20130;-60
2021/08/28 00:36:17;;;;;;;6.45;4.35;;;18.40;75.20;;;;;;5045329;28;20032;-59
2021/08/28 00:38:42;;;;;;;6.65;4.40;;;18.30;75.10;;;;;;5041990;28;20032;-60
2021/08/28 00:41:08;;;;;;;5.60;4.25;;;18.30;75.20;;;;;;5062337;28;20021;-59
2021/08/28 00:43:33;;;;;;;5.57;3.90;;;18.30;75.20;;;;;;5032748;28;20863;-59
2021/08/28 00:45:59;;;;;;;5.43;3.75;;;18.30;75.30;;;;;;5064483;28;20528;-60
2021/08/28 00:48:25;;;;;;;5.15;4.00;;;18.30;75.30;;;;;;5031949;28;20060;-59
2021/08/28 00:50:50;;;;;;;7.47;3.78;;;18.30;75.30;;;;;;5041308;28;20489;-59
2021/08/28 00:53:16;;;;;;;7.72;3.72;;;18.20;75.30;;;;;;5044159;28;20498;-59
2021/08/28 00:55:46;;;;;;;6.32;4.07;;;18.20;75.40;;;;;;5044752;28;20036;-59
2021/08/28 00:58:11;;;;;;;6.13;3.80;;;18.20;75.40;;;;;;5045891;28;20058;-60
2021/08/28 01:00:51;;;;;;;6.38;3.65;;;18.20;75.40;;;;;;5032281;28;20040;-59
2021/08/28 01:03:19;;;;;;;4.82;3.40;;;18.20;75.50;;;;;;5037438;28;20418;-59
2021/08/28 01:06:06;;;;;;;7.72;3.30;;;18.20;75.60;;;;;;5034501;28;20028;-60
2021/08/28 01:08:35;;;;;;;7.18;3.58;;;18.10;75.60;;;;;;5060049;28;20452;-60
2021/08/28 01:11:29;;;;;;;5.32;3.25;;;18.10;75.70;;;;;;5052034;28;20090;-59
2021/08/28 01:14:05;;;;;;;6.40;3.45;;;18.10;75.80;;;;;;5034126;28;20097;-59
2021/08/28 01:16:31;;;;;;;4.30;3.13;;;18.10;75.90;;;;;;5009285;28;20124;-59
2021/08/28 01:18:57;;;;;;;5.50;3.55;;;18.00;76.00;;;;;;5031942;28;20209;-59
2021/08/28 01:21:27;;;;;;;6.55;3.35;;;18.00;76.10;;;;;;5025528;28;20040;-60
2021/08/28 01:23:54;;;;;;;5.97;3.17;;;18.00;76.20;;;;;;5048555;28;20033;-60
2021/08/28 01:26:20;;;;;;;6.05;2.95;;;17.90;76.30;;;;;;5068026;28;20051;-60
2021/08/28 01:28:50;;;;;;;4.70;3.00;;;17.90;76.20;;;;;;5031449;28;20060;-59
2021/08/28 01:31:16;;;;;;;5.78;3.20;;;17.90;76.30;;;;;;5013225;28;20154;-59
2021/08/28 01:33:42;;;;;;;3.85;2.97;;;17.90;76.40;;;;;;5048264;28;20284;-59
2021/08/28 01:36:07;;;;;;;3.78;2.80;;;17.90;76.40;;;;;;5026479;28;20040;-59
2021/08/28 01:38:33;;;;;;;6.35;3.10;;;17.90;76.40;;;;;;5053801;28;20542;-59
2021/08/28 01:40:58;;;;;;;8.02;3.47;;;17.90;76.40;;;;;;5076120;28;20472;-59
2021/08/28 01:43:24;;;;;;;8.73;3.55;;;17.80;76.50;;;;;;5027561;28;20065;-60
2021/08/28 01:45:49;;;;;;;6.40;3.55;;;17.90;76.70;;;;;;5047258;28;20506;-59
2021/08/28 01:48:15;;;;;;;4.68;3.47;;;17.80;77.30;;;;;;5029224;28;20047;-60
2021/08/28 01:50:40;;;;;;;7.35;4.43;;;17.80;76.80;;;;;;5013625;28;20459;-59
2021/08/28 01:53:07;;;;;;;6.15;4.40;;;17.80;76.90;;;;;;5075090;28;20101;-59
2021/08/28 01:55:32;;;;;;;6.93;4.25;;;17.80;77.00;;;;;;5032447;28;20435;-59
2021/08/28 01:57:58;;;;;;;5.75;3.58;;;17.70;77.00;;;;;;5050114;28;20040;-59
2021/08/28 02:00:23;;;;;;;7.78;3.70;;;17.70;77.00;;;;;;5052419;28;20028;-60
2021/08/28 02:02:49;;;;;;;8.63;3.95;;;17.70;77.20;;;;;;5067522;28;20468;-59
2021/08/28 02:05:14;;;;;;;5.30;3.47;;;17.70;77.30;;;;;;5064313;28;20070;-59
2021/08/28 02:08:03;;;;;;;5.07;3.83;;;17.70;77.30;;;;;;5046775;28;20126;-59
2021/08/28 02:10:35;;;;;;;10.35;3.78;;;17.70;77.40;;;;;;5045199;28;20545;-60
2021/08/28 02:13:14;;;;;;;5.03;3.42;;;17.60;77.40;;;;;;5028814;28;20078;-59
2021/08/28 02:15:44;;;;;;;5.95;4.15;;;17.60;77.50;;;;;;5047420;28;20049;-59
2021/08/28 02:18:32;;;;;;;4.53;2.97;;;17.60;77.60;;;;;;5059913;28;20182;-60
2021/08/28 02:20:59;;;;;;;4.22;3.28;;;17.60;77.60;;;;;;5055528;28;20546;-59
2021/08/28 02:23:31;;;;;;;4.70;3.38;;;17.60;77.60;;;;;;5065591;28;20108;-59
2021/08/28 02:26:24;;;;;;;4.57;3.35;;;17.60;77.70;;;;;;5030802;28;20033;-59
2021/08/28 02:29:00;;;;;;;5.43;3.15;;;17.50;77.70;;;;;;5048884;28;20051;-60
2021/08/28 02:31:28;;;;;;;6.93;3.53;;;17.60;77.70;;;;;;5030865;28;20097;-59
2021/08/28 02:33:54;;;;;;;5.72;3.90;;;17.50;77.70;;;;;;5028007;28;20035;-59
2021/08/28 02:36:19;;;;;;;11.77;3.50;;;17.50;77.70;;;;;;5029757;28;20224;-59
2021/08/28 02:38:46;;;;;;;4.60;3.40;;;17.50;77.80;;;;;;5026800;28;20111;-60
2021/08/28 02:41:12;;;;;;;6.40;3.40;;;17.50;77.80;;;;;;5047409;28;20115;-59
2021/08/28 02:43:37;;;;;;;5.03;3.17;;;17.40;77.80;;;;;;5032863;28;20127;-59
2021/08/28 02:46:03;;;;;;;5.82;3.20;;;17.40;77.80;;;;;;5011865;28;20028;-60
2021/08/28 02:48:29;;;;;;;8.15;3.70;;;17.40;77.90;;;;;;5022737;28;20058;-59
2021/08/28 02:50:55;;;;;;;9.75;3.85;;;17.40;78.00;;;;;;5024458;28;20464;-58
2021/08/28 02:53:21;;;;;;;5.00;3.80;;;17.40;78.00;;;;;;5032552;28;20059;-59
2021/08/28 02:55:47;;;;;;;9.32;4.60;;;17.30;78.00;;;;;;5047692;28;20060;-59
2021/08/28 02:58:13;;;;;;;7.70;3.65;;;17.30;78.10;;;;;;5027570;28;20052;-60
2021/08/28 03:00:39;;;;;;;6.85;3.72;;;17.30;78.10;;;;;;5031040;28;20047;-59
2021/08/28 03:03:05;;;;;;;7.95;4.07;;;17.30;78.10;;;;;;5045397;28;20653;-58
2021/08/28 03:05:30;;;;;;;7.22;3.55;;;17.20;78.20;;;;;;5029326;28;20124;-60
2021/08/28 03:07:56;;;;;;;5.28;4.25;;;17.20;78.30;;;;;;5045492;28;20036;-59
2021/08/28 03:10:21;;;;;;;5.55;3.67;;;17.20;78.40;;;;;;5034852;28;20528;-59
2021/08/28 03:12:47;;;;;;;6.75;3.70;;;17.20;78.40;;;;;;5047661;28;20041;-60
2021/08/28 03:15:12;;;;;;;4.93;3.78;;;17.10;78.50;;;;;;5041997;28;20120;-59
2021/08/28 03:17:39;;;;;;;5.00;3.63;;;17.10;78.50;;;;;;5050266;28;20052;-59
2021/08/28 03:20:05;;;;;;;3.88;3.13;;;17.10;78.50;;;;;;5037948;28;20499;-60
2021/08/28 03:22:30;;;;;;;5.82;3.45;;;17.10;78.50;;;;;;5043239;28;20020;-59
2021/08/28 03:24:56;;;;;;;6.38;3.60;;;17.10;78.50;;;;;;5026599;28;20033;-59
2021/08/28 03:27:21;;;;;;;3.67;2.97;;;17.10;78.40;;;;;;5039614;28;20052;-59
2021/08/28 03:29:48;;;;;;;4.47;3.15;;;17.10;78.40;;;;;;5045452;28;20024;-60
2021/08/28 03:32:14;;;;;;;5.60;3.30;;;17.10;78.50;;;;;;5028780;28;20036;-59
2021/08/28 03:34:39;;;;;;;6.70;3.58;;;17.10;78.60;;;;;;5040839;28;20028;-59
2021/08/28 03:37:06;;;;;;;4.45;2.97;;;17.10;78.60;;;;;;5046827;28;20529;-59
2021/08/28 03:39:32;;;;;;;5.93;3.33;;;17.00;78.70;;;;;;5027569;28;20060;-60
2021/08/28 03:41:57;;;;;;;4.45;3.15;;;17.00;78.70;;;;;;5048868;28;20036;-59
2021/08/28 03:44:23;;;;;;;4.68;3.05;;;17.00;78.80;;;;;;5047184;28;20055;-59
2021/08/28 03:46:49;;;;;;;5.50;3.53;;;17.00;78.90;;;;;;5063154;28;20048;-59
2021/08/28 03:49:14;;;;;;;4.97;3.22;;;16.90;79.00;;;;;;5047850;28;20542;-59
2021/08/28 03:51:40;;;;;;;3.05;2.70;;;16.90;79.10;;;;;;5029330;28;20028;-59
2021/08/28 03:54:06;;;;;;;3.20;2.80;;;16.90;79.20;;;;;;5042067;28;20036;-60
2021/08/28 03:56:31;;;;;;;4.13;2.72;;;16.80;79.10;;;;;;5061620;28;20115;-59
2021/08/28 03:58:57;;;;;;;5.68;2.63;;;16.90;79.20;;;;;;5042291;28;20147;-59
2021/08/28 04:01:22;;;;;;;6.20;2.95;;;16.80;79.30;;;;;;5049803;28;20506;-60
2021/08/28 04:03:48;;;;;;;3.28;2.90;;;16.80;79.40;;;;;;5041208;28;20032;-59
2021/08/28 04:06:13;;;;;;;3.53;2.80;;;16.80;79.40;;;;;;5046114;28;20542;-59
2021/08/28 04:08:39;;;;;;;5.25;2.90;;;16.80;79.50;;;;;;5062712;28;20080;-59
2021/08/28 04:11:04;;;;;;;2.70;2.50;;;16.70;79.50;;;;;;5052014;28;20028;-59
2021/08/28 04:13:30;;;;;;;5.55;2.88;;;16.70;79.40;;;;;;5047073;28;20043;-59
2021/08/28 04:15:55;;;;;;;3.30;2.80;;;16.70;79.50;;;;;;5059856;28;20033;-60
2021/08/28 04:18:21;;;;;;;3.22;2.55;;;16.70;79.50;;;;;;5038885;28;20052;-59
2021/08/28 04:20:47;;;;;;;6.15;2.75;;;16.70;79.50;;;;;;5051842;28;20035;-59
2021/08/28 04:23:12;;;;;;;3.50;2.63;;;16.70;79.60;;;;;;5065144;28;20056;-60
2021/08/28 04:25:38;;;;;;;3.15;2.40;;;16.70;79.60;;;;;;5045902;28;20123;-59
2021/08/28 04:28:04;;;;;;;3.55;2.70;;;16.70;79.60;;;;;;5028709;28;20571;-59
2021/08/28 04:30:29;;;;;;;3.15;2.50;;;16.70;79.80;;;;;;5024696;28;21432;-59
2021/08/28 04:32:55;;;;;;;5.60;3.30;;;16.70;79.90;;;;;;5049530;28;20048;-59
2021/08/28 04:35:21;;;;;;;3.70;2.55;;;16.60;79.90;;;;;;5048993;28;20086;-59
2021/08/28 04:37:46;;;;;;;4.25;2.72;;;16.60;80.00;;;;;;5068143;28;20039;-59
2021/08/28 04:40:12;;;;;;;2.88;2.55;;;16.60;80.10;;;;;;5067361;28;20055;-60
2021/08/28 04:42:37;;;;;;;3.25;2.65;;;16.60;80.10;;;;;;5046013;28;20128;-59
2021/08/28 04:45:04;;;;;;;6.00;2.72;;;16.50;80.10;;;;;;5050681;28;20043;-59
2021/08/28 04:47:30;;;;;;;6.13;2.60;;;16.50;80.10;;;;;;5070766;28;20490;-60
2021/08/28 04:49:55;;;;;;;2.60;2.40;;;16.50;80.30;;;;;;5045330;28;20044;-59
2021/08/28 04:52:21;;;;;;;3.60;2.80;;;16.50;80.30;;;;;;5063154;28;20429;-59
2021/08/28 04:54:46;;;;;;;3.85;2.58;;;16.50;80.30;;;;;;5062872;28;20056;-59
2021/08/28 04:57:12;;;;;;;7.20;2.65;;;16.50;80.40;;;;;;5045691;28;20060;-59
2021/08/28 04:59:37;;;;;;;5.88;3.22;;;16.50;80.40;;;;;;5047560;28;20096;-59
2021/08/28 05:02:04;;;;;;;34.65;5.53;;;16.40;80.40;;;;;;5066390;28;20029;-59
2021/08/28 05:04:30;;;;;;;37.72;6.85;;;16.50;80.40;;;;;;5033178;28;20028;-59
2021/08/28 05:06:55;;;;;;;45.05;7.10;;;16.50;80.40;;;;;;5036416;28;20098;-59
2021/08/28 05:09:21;;;;;;;54.22;6.65;;;16.50;80.40;;;;;;5029550;28;20055;-59
2021/08/28 05:11:47;;;;;;;40.50;6.65;;;16.50;80.30;;;;;;5040485;28;20144;-59
2021/08/28 05:14:13;;;;;;;67.18;7.10;;;16.50;80.40;;;;;;5030747;28;20103;-59
2021/08/28 05:16:38;;;;;;;425.00;44.15;;;16.50;80.30;;;;;;5057608;28;20425;-59
2021/08/28 05:19:04;;;;;;;212.25;22.35;;;16.50;80.40;;;;;;5049545;28;20028;-59
2021/08/28 05:21:31;;;;;;;185.80;17.73;;;16.50;80.40;;;;;;5028920;28;20051;-60
2021/08/28 05:23:57;;;;;;;113.20;12.70;;;16.50;80.50;;;;;;5032022;28;20148;-60
2021/08/28 05:26:22;;;;;;;87.28;11.32;;;16.50;80.60;;;;;;5046988;28;20498;-59
2021/08/28 05:28:47;;;;;;;80.47;9.50;;;16.50;80.50;;;;;;5062916;28;20078;-60
2021/08/28 05:31:13;;;;;;;83.78;9.65;;;16.40;80.50;;;;;;5067827;28;20078;-59
2021/08/28 05:33:38;;;;;;;76.25;9.50;;;16.50;80.50;;;;;;5048231;28;20078;-59
2021/08/28 05:36:04;;;;;;;73.10;9.63;;;16.50;80.60;;;;;;5064798;28;20044;-60
2021/08/28 05:38:30;;;;;;;48.38;8.10;;;16.50;80.60;;;;;;5047008;28;20404;-59
2021/08/28 05:40:56;;;;;;;73.35;10.15;;;16.50;80.60;;;;;;5064954;28;20095;-59
2021/08/28 05:43:22;;;;;;;57.78;8.10;;;16.50;80.40;;;;;;5066422;28;20426;-60
2021/08/28 05:45:47;;;;;;;83.30;9.63;;;16.50;80.40;;;;;;5044210;28;20029;-60
2021/08/28 05:48:13;;;;;;;76.82;9.38;;;16.50;80.40;;;;;;5025934;28;20625;-59
2021/08/28 05:50:38;;;;;;;73.20;8.45;;;16.50;80.40;;;;;;5028730;28;20044;-60
2021/08/28 05:53:04;;;;;;;71.57;8.25;;;16.50;80.30;;;;;;5064863;28;20041;-59
2021/08/28 05:55:29;;;;;;;82.60;10.68;;;16.50;80.30;;;;;;5044463;28;20070;-59
2021/08/28 05:57:55;;;;;;;68.93;8.05;;;16.50;80.30;;;;;;5045987;28;20037;-59
2021/08/28 06:00:20;;;;;;;70.53;7.88;;;16.50;80.40;;;;;;5063517;28;20036;-59
2021/08/28 06:02:46;;;;;;;47.15;6.95;;;16.50;80.50;;;;;;5066935;28;20445;-59
2021/08/28 06:05:12;;;;;;;46.85;6.97;;;16.60;80.70;;;;;;5062605;28;20084;-59
2021/08/28 06:07:37;;;;;;;48.60;7.75;;;16.50;80.80;;;;;;5043605;28;20032;-59
2021/08/28 06:10:03;;;;;;;41.22;6.70;;;16.50;80.70;;;;;;5044538;28;20039;-59
2021/08/28 06:12:29;;;;;;;58.50;6.88;;;16.60;80.90;;;;;;5026774;28;20041;-60
2021/08/28 06:14:54;;;;;;;35.67;6.03;;;16.50;80.90;;;;;;5046780;28;20090;-60
2021/08/28 06:17:20;;;;;;;45.65;6.72;;;16.60;80.90;;;;;;5045682;28;20582;-59
2021/08/28 06:19:45;;;;;;;36.90;6.60;;;16.60;81.70;;;;;;5042149;28;20536;-59
2021/08/28 06:22:11;;;;;;;47.92;6.55;;;16.60;81.10;;;;;;5046414;28;20638;-59
2021/08/28 06:24:36;;;;;;;42.53;6.35;;;16.60;81.00;;;;;;5062288;28;20105;-59
2021/08/28 06:27:03;;;;;;;33.65;6.25;;;16.60;80.90;;;;;;5043951;28;20042;-60
2021/08/28 06:29:28;;;;;;;30.83;6.10;;;16.60;80.80;;;;;;5067189;28;20028;-59
2021/08/28 06:31:54;;;;;;;33.60;4.57;;;16.60;81.00;;;;;;5041112;28;20099;-59
2021/08/28 06:34:19;;;;;;;28.38;5.70;;;16.70;80.80;;;;;;5063476;28;20047;-59
2021/08/28 06:36:45;;;;;;;285.00;20.05;;;16.60;80.70;;;;;;5058177;28;20035;-59
2021/08/28 06:39:10;;;;;;;92.30;9.23;;;16.70;80.70;;;;;;5043854;28;20047;-59
2021/08/28 06:41:36;;;;;;;71.88;7.15;;;16.70;80.70;;;;;;5062735;28;20055;-59
2021/08/28 06:44:02;;;;;;;65.32;7.47;;;16.70;80.80;;;;;;5045476;28;20865;-59
2021/08/28 06:46:28;;;;;;;64.95;8.45;;;16.70;80.90;;;;;;5018109;28;20150;-59
2021/08/28 06:48:54;;;;;;;60.35;7.57;;;16.70;81.10;;;;;;5059203;28;20117;-58
2021/08/28 06:51:20;;;;;;;61.45;7.72;;;16.70;81.20;;;;;;5013522;28;20078;-59
2021/08/28 06:53:45;;;;;;;66.10;6.90;;;16.70;81.00;;;;;;5059631;28;20526;-59
2021/08/28 06:56:11;;;;;;;60.45;8.60;;;16.80;81.00;;;;;;5042085;28;20124;-59
2021/08/28 06:58:36;;;;;;;53.10;7.70;;;16.80;80.80;;;;;;5062962;28;20474;-59
2021/08/28 07:01:02;;;;;;;55.50;7.22;;;16.80;80.80;;;;;;5043716;28;20032;-59
2021/08/28 07:03:28;;;;;;;40.47;6.38;;;16.80;80.70;;;;;;5038809;28;20040;-59
2021/08/28 07:05:54;;;;;;;51.05;7.25;;;16.80;80.80;;;;;;5044022;28;20044;-59
2021/08/28 07:08:19;;;;;;;20.02;4.80;;;16.80;80.90;;;;;;5045125;28;20227;-60
2021/08/28 07:10:46;;;;;;;32.10;5.05;;;16.80;81.00;;;;;;5065327;28;20033;-59
2021/08/28 07:13:12;;;;;;;31.30;6.43;;;16.80;81.00;;;;;;5059411;28;20388;-59
2021/08/28 07:15:37;;;;;;;28.23;5.35;;;16.80;81.00;;;;;;5044948;28;20051;-59
2021/08/28 07:18:03;;;;;;;34.53;4.68;;;16.80;81.10;;;;;;5059365;28;20051;-59
2021/08/28 07:20:28;;;;;;;22.63;5.20;;;16.80;81.10;;;;;;5043201;28;21034;-59
2021/08/28 07:22:54;;;;;;;39.35;4.93;;;16.80;81.20;;;;;;5053027;28;20699;-59
2021/08/28 07:25:19;;;;;;;27.02;4.75;;;16.80;81.30;;;;;;5029494;28;20056;-59
2021/08/28 07:27:45;;;;;;;27.02;4.80;;;16.80;81.30;;;;;;5017536;28;20163;-59
2021/08/28 07:30:11;;;;;;;31.55;5.20;;;16.80;81.20;;;;;;5062706;28;20037;-60
2021/08/28 07:32:36;;;;;;;28.98;4.80;;;16.80;81.30;;;;;;5056711;28;20449;-59
2021/08/28 07:35:02;;;;;;;20.92;4.15;;;16.80;81.30;;;;;;5011179;28;20054;-60
2021/08/28 07:37:28;;;;;;;35.38;4.50;;;16.80;81.40;;;;;;5054792;28;20677;-60
2021/08/28 07:39:53;;;;;;;37.92;5.00;;;16.80;81.40;;;;;;5039374;28;20036;-60
2021/08/28 07:42:19;;;;;;;13.15;3.50;;;16.80;81.40;;;;;;5035883;28;20140;-60
2021/08/28 07:44:45;;;;;;;18.00;4.63;;;16.80;81.50;;;;;;5039017;28;20747;-60
2021/08/28 07:47:10;;;;;;;17.63;4.13;;;16.70;81.50;;;;;;5054295;28;20032;-60
2021/08/28 07:49:36;;;;;;;18.00;4.45;;;16.80;81.50;;;;;;5053681;28;20400;-59
2021/08/28 07:52:02;;;;;;;15.43;3.88;;;16.70;81.60;;;;;;5017216;28;20593;-59
2021/08/28 07:54:28;;;;;;;11.48;3.75;;;16.80;81.80;;;;;;5006894;28;20049;-60
2021/08/28 07:56:53;;;;;;;11.05;4.30;;;16.70;81.70;;;;;;5055635;28;20040;-60
2021/08/28 07:59:19;;;;;;;16.58;3.35;;;16.70;81.80;;;;;;5058807;28;20038;-59
2021/08/28 08:01:44;;;;;;;10.55;3.72;;;16.70;82.00;;;;;;5030075;28;20031;-59
2021/08/28 08:04:10;;;;;;;11.25;3.63;;;16.70;82.00;;;;;;5065414;28;20123;-59
2021/08/28 08:06:35;;;;;;;12.75;4.38;;;16.80;82.30;;;;;;5038055;28;20058;-59
2021/08/28 08:09:01;;;;;;;18.13;3.33;;;16.70;82.50;;;;;;5058067;28;21372;-59
2021/08/28 08:11:26;;;;;;;10.25;3.28;;;16.70;82.40;;;;;;5055067;28;20466;-59
2021/08/28 08:13:52;;;;;;;12.75;3.92;;;16.70;82.50;;;;;;5021056;28;20108;-60
2021/08/28 08:16:17;;;;;;;21.00;4.15;;;16.70;82.60;;;;;;5028261;28;20038;-59
2021/08/28 08:18:43;;;;;;;18.17;4.28;;;16.70;82.70;;;;;;5064727;28;20055;-59
2021/08/28 08:21:08;;;;;;;30.73;4.97;;;16.80;82.70;;;;;;5043046;28;20033;-60
2021/08/28 08:23:34;;;;;;;32.60;5.28;;;16.80;82.90;;;;;;5059388;28;20052;-60
2021/08/28 08:25:59;;;;;;;20.23;5.97;;;16.80;83.30;;;;;;5044871;28;20028;-59
2021/08/28 08:28:25;;;;;;;36.28;6.28;;;16.80;83.20;;;;;;5041850;28;20025;-59
2021/08/28 08:30:50;;;;;;;45.20;7.97;;;16.80;83.60;;;;;;5060054;28;20119;-59
2021/08/28 08:33:16;;;;;;;54.13;7.18;;;16.90;83.40;;;;;;5020816;28;20155;-60
2021/08/28 08:35:41;;;;;;;68.47;8.73;;;16.80;83.60;;;;;;5048711;28;21245;-59
2021/08/28 08:38:07;;;;;;;46.35;7.20;;;16.80;84.00;;;;;;5050934;28;20557;-59
2021/08/28 08:40:33;;;;;;;46.55;7.85;;;16.90;83.80;;;;;;5035082;28;20491;-59
2021/08/28 08:43:00;;;;;;;114.25;12.48;;;16.90;83.80;;;;;;5021849;28;20381;-59
2021/08/28 08:45:26;;;;;;;55.63;8.65;;;17.00;84.60;;;;;;5031150;28;20036;-59
2021/08/28 08:47:51;;;;;;;80.57;11.30;;;17.00;84.00;;;;;;5037724;28;20041;-59
2021/08/28 08:50:18;;;;;;;196.48;19.25;;;17.00;84.50;;;;;;5039833;28;20032;-60
2021/08/28 08:52:46;;;;;;;172.00;18.10;;;17.00;84.60;;;;;;5038657;28;20043;-59
2021/08/28 08:55:11;;;;;;;119.97;13.55;;;17.10;84.20;;;;;;5056145;28;20124;-59
2021/08/28 08:57:37;;;;;;;63.33;10.18;;;17.10;84.80;;;;;;5017857;28;20048;-59
2021/08/28 09:00:03;;;;;;;75.43;8.77;;;17.10;84.80;;;;;;5041051;28;20508;-59
2021/08/28 09:02:30;;;;;;;98.50;9.82;;;17.20;84.50;;;;;;5018292;28;20559;-59
2021/08/28 09:04:55;;;;;;;104.53;10.13;;;17.10;84.20;;;;;;5050007;28;20078;-60
2021/08/28 09:07:21;;;;;;;109.35;12.77;;;17.20;84.60;;;;;;5053432;28;20626;-60
2021/08/28 09:09:46;;;;;;;118.93;13.30;;;17.20;84.50;;;;;;5032321;28;20052;-60
2021/08/28 09:12:12;;;;;;;101.63;11.88;;;17.30;84.40;;;;;;5034632;28;20554;-59
2021/08/28 09:14:38;;;;;;;68.93;10.15;;;16.90;83.70;;;;;;5026387;28;20040;-59
2021/08/28 09:17:18;;;;;;;95.10;11.73;;;17.30;83.40;;;;;;5029376;28;20059;-59
2021/08/28 09:19:44;;;;;;;80.50;10.75;;;17.40;83.30;;;;;;5034228;28;20051;-59
2021/08/28 09:22:23;;;;;;;105.53;12.82;;;17.40;84.00;;;;;;5035050;28;20044;-59
2021/08/28 09:24:49;;;;;;;117.38;12.38;;;17.40;84.10;;;;;;5049315;28;20021;-59
2021/08/28 09:27:37;;;;;;;473.05;52.40;;;17.50;84.00;;;;;;5032744;28;20048;-59
2021/08/28 09:30:33;;;;;;;137.07;13.48;;;17.50;83.90;;;;;;5037963;28;20024;-59
2021/08/28 09:33:00;;;;;;;132.55;12.57;;;17.60;83.90;;;;;;5011570;28;20143;-59
2021/08/28 09:35:30;;;;;;;499.60;44.45;;;17.60;83.60;;;;;;5031592;28;20078;-59
2021/08/28 09:38:07;;;;;;;207.90;21.45;;;17.60;83.40;;;;;;5016060;28;20036;-59
2021/08/28 09:40:34;;;;;;;140.85;16.40;;;17.60;83.30;;;;;;5051110;28;20106;-60
2021/08/28 09:43:08;;;;;;;134.25;13.25;;;17.60;83.00;;;;;;5030514;28;20135;-59
2021/08/28 09:45:34;;;;;;;209.13;16.95;;;17.60;83.00;;;;;;5036144;28;20102;-59
2021/08/28 09:48:00;;;;;;;262.00;22.77;;;17.70;82.90;;;;;;5021464;28;20502;-59
2021/08/28 09:50:50;;;;;;;263.92;23.15;;;17.70;82.90;;;;;;5051275;28;20029;-59
2021/08/28 09:53:23;;;;;;;151.98;18.27;;;17.80;83.00;;;;;;5042349;28;20141;-59
2021/08/28 09:55:59;;;;;;;107.97;11.80;;;17.80;82.80;;;;;;5040304;28;20514;-59
2021/08/28 09:58:25;;;;;;;;;;;17.90;82.00;;;;;;5051785;28;20028;-59
2021/08/28 10:00:50;;;;;;;84.13;11.25;;;17.90;81.70;;;;;;5031302;28;19931;-60
2021/08/28 10:03:18;;;;;;;178.80;19.08;;;18.00;81.20;;;;;;5047306;28;20032;-59
2021/08/28 10:05:44;;;;;;;145.13;15.70;;;18.00;81.60;;;;;;5035949;28;20125;-59
2021/08/28 10:08:10;;;;;;;152.82;14.50;;;18.10;80.60;;;;;;5006561;28;20151;-60
2021/08/28 10:10:37;;;;;;;113.38;12.07;;;18.20;80.40;;;;;;5014518;28;20036;-62
2021/08/28 10:13:03;;;;;;;188.98;16.42;;;18.20;79.80;;;;;;5051155;28;20025;-62
2021/08/28 10:15:30;;;;;;;220.05;21.02;;;18.30;79.90;;;;;;5055096;28;20052;-62
2021/08/28 10:17:56;;;;;;;302.90;30.63;;;18.30;79.60;;;;;;5015142;28;20079;-59
2021/08/28 10:20:22;;;;;;;171.25;16.67;;;18.40;79.80;;;;;;4997066;28;20089;-59
2021/08/28 10:22:50;;;;;;;321.98;32.95;;;18.40;79.40;;;;;;5036431;28;20075;-59
2021/08/28 10:25:17;;;;;;;196.55;19.23;;;18.50;79.20;;;;;;5023282;28;20591;-59
2021/08/28 10:27:43;;;;;;;289.42;25.25;;;18.50;79.00;;;;;;5041727;28;20036;-59
2021/08/28 10:30:10;;;;;;;657.20;63.63;;;18.50;78.80;;;;;;5039108;28;20374;-59
2021/08/28 10:32:36;;;;;;;208.98;18.33;;;18.50;78.80;;;;;;5020944;28;20044;-59
2021/08/28 10:35:02;;;;;;;115.00;14.15;;;18.60;78.80;;;;;;5034707;28;20655;-60
2021/08/28 10:37:28;;;;;;;217.57;21.60;;;18.60;77.60;;;;;;5037093;28;20139;-59
2021/08/28 10:39:53;;;;;;;259.83;24.98;;;18.70;77.30;;;;;;5041734;28;20055;-59
2021/08/28 10:42:20;;;;;;;149.85;18.35;;;18.60;77.30;;;;;;5059937;28;20429;-59
2021/08/28 10:44:49;;;;;;;174.60;18.05;;;18.70;77.20;;;;;;5044983;28;20039;-59
2021/08/28 10:47:15;;;;;;;131.07;14.07;;;18.70;76.70;;;;;;5037351;28;20025;-59
2021/08/28 10:49:45;;;;;;;183.82;17.42;;;18.70;77.30;;;;;;5041128;28;20091;-60
2021/08/28 10:52:24;;;;;;;116.78;12.10;;;18.70;76.20;;;;;;5038623;28;20130;-59
2021/08/28 10:54:54;;;;;;;85.40;11.45;;;18.80;76.00;;;;;;5039478;28;20036;-59
2021/08/28 10:57:28;;;;;;;81.10;9.55;;;18.80;76.00;;;;;;5022738;28;20040;-59
2021/08/28 11:00:07;;;;;;;84.63;7.78;;;18.90;76.70;;;;;;5041925;28;20051;-60
2021/08/28 11:03:27;;;;;;;87.93;8.80;;;18.90;76.00;;;;;;5058527;28;20482;-59
2021/08/28 11:06:21;;;;;;;77.10;8.00;;;18.90;75.90;;;;;;4962576;28;20061;-59
2021/08/28 11:08:48;;;;;;;74.28;7.32;;;18.90;76.00;;;;;;5059815;28;20020;-59
2021/08/28 11:11:27;;;;;;;85.50;8.57;;;18.90;75.90;;;;;;5043192;28;20109;-59
2021/08/28 11:13:54;;;;;;;50.78;6.60;;;19.00;75.30;;;;;;5064084;28;20024;-59
2021/08/28 11:16:43;;;;;;;56.45;6.35;;;19.00;75.00;;;;;;5046584;28;20055;-59
2021/08/28 11:19:09;;;;;;;69.95;5.85;;;19.00;74.50;;;;;;5046946;28;20508;-60
2021/08/28 11:21:44;;;;;;;49.97;5.00;;;19.00;74.40;;;;;;5040034;28;20127;-59
2021/08/28 11:24:28;;;;;;;68.95;6.15;;;19.10;74.40;;;;;;5022185;28;20021;-59
2021/08/28 11:27:04;;;;;;;49.65;7.13;;;19.10;74.10;;;;;;5041949;28;20032;-59
2021/08/28 11:29:48;;;;;;;35.63;5.90;;;19.10;73.60;;;;;;5027694;28;20048;-59
2021/08/28 11:32:17;;;;;;;50.22;6.38;;;19.10;73.50;;;;;;5066942;28;20506;-59
2021/08/28 11:34:44;;;;;;;44.22;5.57;;;19.10;73.30;;;;;;5061331;28;20115;-60
2021/08/28 11:37:28;;;;;;;61.17;5.28;;;19.10;73.40;;;;;;5041114;28;20037;-59
2021/08/28 11:40:05;;;;;;;39.40;5.68;;;19.20;73.10;;;;;;5058318;28;20064;-59
2021/08/28 11:42:32;;;;;;;37.47;4.75;;;19.20;73.00;;;;;;5040538;28;20040;-59
2021/08/28 11:44:57;;;;;;;46.13;4.75;;;19.20;72.90;;;;;;5062412;28;20032;-59
2021/08/28 11:47:23;;;;;;;43.05;5.18;;;19.30;72.90;;;;;;5041092;28;20109;-59
2021/08/28 11:49:52;;;;;;;30.70;4.68;;;19.40;72.90;;;;;;5044578;28;20058;-59
2021/08/28 11:52:18;;;;;;;36.20;4.75;;;19.40;72.60;;;;;;5060315;28;20086;-59
2021/08/28 11:54:44;;;;;;;43.72;4.80;;;19.40;72.70;;;;;;5062215;28;20036;-60
2021/08/28 11:57:10;;;;;;;39.85;3.90;;;19.40;72.50;;;;;;5057510;28;20028;-60
2021/08/28 11:59:39;;;;;;;41.13;4.55;;;19.40;72.80;;;;;;5040211;28;20031;-59
2021/08/28 12:02:05;;;;;;;48.47;5.43;;;19.40;73.30;;;;;;5038329;28;20094;-59
2021/08/28 12:04:34;;;;;;;30.63;5.15;;;19.40;73.80;;;;;;5046997;28;20025;-59
2021/08/28 12:07:00;;;;;;;23.10;3.35;;;19.50;74.00;;;;;;5063092;28;20043;-59
2021/08/28 12:09:26;;;;;;;53.33;4.75;;;19.50;74.20;;;;;;5024377;28;20037;-59
2021/08/28 12:11:52;;;;;;;35.63;4.32;;;19.50;75.00;;;;;;5038725;28;20055;-59
2021/08/28 12:14:19;;;;;;;35.78;5.68;;;19.50;75.00;;;;;;5026093;28;20048;-59
2021/08/28 12:16:45;;;;;;;45.50;5.20;;;19.60;75.50;;;;;;5046741;28;20068;-59
2021/08/28 12:19:18;;;;;;;38.45;4.93;;;19.60;75.50;;;;;;5043921;28;20108;-59
2021/08/28 12:21:45;;;;;;;26.15;4.22;;;19.60;75.30;;;;;;5039432;28;20087;-59
2021/08/28 12:24:20;;;;;;;56.53;5.22;;;19.60;75.50;;;;;;5030343;28;20190;-59
2021/08/28 12:26:56;;;;;;;34.08;4.55;;;19.70;75.50;;;;;;5040169;28;20036;-59
2021/08/28 12:29:26;;;;;;;38.45;5.80;;;19.70;75.80;;;;;;5023319;28;20131;-59
2021/08/28 12:32:05;;;;;;;33.42;4.30;;;19.80;75.70;;;;;;5040229;28;20036;-59
2021/08/28 12:34:31;;;;;;;44.75;6.20;;;19.80;75.80;;;;;;5040361;28;20043;-59
2021/08/28 12:37:01;;;;;;;67.82;6.65;;;19.90;75.70;;;;;;5064119;28;20587;-59
2021/08/28 12:39:27;;;;;;;29.67;4.22;;;19.90;75.70;;;;;;5031683;28;20027;-59
2021/08/28 12:41:52;;;;;;;50.55;5.43;;;20.00;75.40;;;;;;5053343;28;20048;-59